»·PEaware :: AAY45 KGPI-KLAS

AAY45 :: KGPI-KLAS

FLIGHT INFORMATION

Flight Status: Arrived
Operator:
Allegiant Air
More flights by this operator :: More flights under this callsign
Pilot: Henderson P. (1210)
Aircraft: AIRBUS A320
(A320)
More flights by this aircraft type
Origin: KGPI Glacier Park Intl
United States
Destination: KLAS McCarran Intl
United States
More flights between these airports :: More routes between these airports
Route: +GPI1 SKOTT DLN J9 FRNZY MPIRE SITEE3
File this flight plan on PilotEdge
Remarks:
Altitude:
(Current/Filed)
33,000ft
Speed:
(Current/Filed)
443kts
Departed: 18-Oct-18 09:28 AM
Arrived: 18-Oct-18 11:21 AM
Distance/Time
Traveled:
735nm/1:53
Distance/Time
To Go:
Arrived

Flight Plot

Page will automatically refresh every two minutes.

Flight plan parsing failed; only flown route is shown


Map Options




Map Legend


Flown Route
Filed Route
Departure Airport
Arrival Airport
Navaid (VOR, NDB)
Fix

Horizontal Profiles

Position Reports

Time Latitude Longitude Heading Altitude Ground
Speed
18-Oct-18 08:48 48.307190 -114.254061 124 2983ft 0kts
18-Oct-18 08:49 48.307190 -114.254061 124 2983ft 0kts
18-Oct-18 08:50 48.307190 -114.254061 124 2983ft 0kts
18-Oct-18 08:51 48.307190 -114.254061 124 2983ft 0kts
18-Oct-18 08:52 48.307190 -114.254061 124 2983ft 0kts
18-Oct-18 08:53 48.307190 -114.254061 124 2983ft 0kts
18-Oct-18 08:54 48.307190 -114.254061 124 2983ft 0kts
18-Oct-18 08:55 48.307190 -114.254061 124 2983ft 0kts
18-Oct-18 08:56 48.307190 -114.254061 124 2983ft 0kts
18-Oct-18 08:57 48.307190 -114.254061 124 2983ft 0kts
18-Oct-18 08:58 48.307190 -114.254061 124 2983ft 0kts
18-Oct-18 08:59 48.307190 -114.254061 124 2983ft 0kts
18-Oct-18 09:00 48.307190 -114.254061 124 2983ft 0kts
18-Oct-18 09:01 48.307190 -114.254061 124 2983ft 0kts
18-Oct-18 09:02 48.307190 -114.254061 124 2983ft 0kts
18-Oct-18 09:03 48.307190 -114.254061 124 2983ft 0kts
18-Oct-18 09:04 48.307190 -114.254061 124 2983ft 0kts
18-Oct-18 09:05 48.307190 -114.254061 124 2983ft 0kts
18-Oct-18 09:06 48.307190 -114.254061 124 2983ft 0kts
18-Oct-18 09:07 48.307190 -114.254061 124 2983ft 0kts
18-Oct-18 09:08 48.307190 -114.254061 124 2983ft 0kts
18-Oct-18 09:09 48.307190 -114.254061 124 2983ft 0kts
18-Oct-18 09:10 48.307190 -114.254061 124 2983ft 0kts
18-Oct-18 09:11 48.307190 -114.254061 124 2983ft 0kts
18-Oct-18 09:12 48.307190 -114.254061 124 2983ft 0kts
18-Oct-18 09:13 48.307190 -114.254061 124 2983ft 0kts
18-Oct-18 09:14 48.307190 -114.254061 124 2983ft 0kts
18-Oct-18 09:15 48.307190 -114.254061 124 2983ft 0kts
18-Oct-18 09:16 48.307190 -114.254061 124 2983ft 0kts
18-Oct-18 09:17 48.307190 -114.254061 124 2983ft 0kts
18-Oct-18 09:18 48.307190 -114.254061 124 2983ft 0kts
18-Oct-18 09:19 48.307190 -114.254061 124 2983ft 0kts
18-Oct-18 09:20 48.307190 -114.254061 124 2983ft 0kts
18-Oct-18 09:21 48.307190 -114.254061 124 2983ft 0kts
18-Oct-18 09:22 48.307190 -114.254061 124 2983ft 0kts
18-Oct-18 09:23 48.307193 -114.254068 124 2983ft 0kts
18-Oct-18 09:24 48.307516 -114.254777 123 2983ft 0kts
18-Oct-18 09:25 48.307516 -114.254777 123 2983ft 0kts
18-Oct-18 09:26 48.307516 -114.254777 123 2983ft 0kts
18-Oct-18 09:27 48.308309 -114.255524 342 2983ft 6kts
18-Oct-18 09:28 48.311859 -114.252009 34 2983ft 24kts
18-Oct-18 09:29 48.317406 -114.246215 35 2983ft 14kts
18-Oct-18 09:30 48.317131 -114.248578 214 2983ft 61kts
18-Oct-18 09:31 48.281317 -114.284230 213 4509ft 180kts
18-Oct-18 09:32 48.227136 -114.308094 158 6029ft 253kts
18-Oct-18 09:33 48.156111 -114.265897 161 8866ft 284kts
18-Oct-18 09:34 48.077689 -114.221751 161 11069ft 330kts
18-Oct-18 09:35 47.984109 -114.169152 161 12682ft 384kts
18-Oct-18 09:36 47.877767 -114.151150 180 15233ft 391kts
18-Oct-18 09:37 47.766957 -114.143540 178 17445ft 404kts
18-Oct-18 09:38 47.657432 -114.102899 155 19417ft 419kts
18-Oct-18 09:39 47.550215 -114.028351 156 21173ft 431kts
18-Oct-18 09:40 47.439496 -113.954286 155 22801ft 442kts
18-Oct-18 09:41 47.326170 -113.878291 155 24275ft 452kts
18-Oct-18 09:42 47.210340 -113.801123 155 25655ft 462kts
18-Oct-18 09:43 47.091988 -113.722604 154 26913ft 471kts
18-Oct-18 09:44 46.971456 -113.643053 154 28056ft 479kts
18-Oct-18 09:45 46.848986 -113.562654 154 29065ft 486kts
18-Oct-18 09:46 46.725821 -113.482221 154 30460ft 482kts
18-Oct-18 09:47 46.603449 -113.402633 154 31745ft 479kts
18-Oct-18 09:48 46.482251 -113.324196 154 32927ft 476kts
18-Oct-18 09:49 46.361452 -113.246496 154 33329ft 475kts
18-Oct-18 09:50 46.240400 -113.168956 154 33328ft 475kts
18-Oct-18 09:51 46.119390 -113.091757 154 33332ft 475kts
18-Oct-18 09:52 45.998621 -113.015120 154 33336ft 475kts
18-Oct-18 09:53 45.877791 -112.938838 154 33364ft 474kts
18-Oct-18 09:54 45.756817 -112.862828 154 33369ft 474kts
18-Oct-18 09:55 45.636158 -112.787339 154 33368ft 474kts
18-Oct-18 09:56 45.515054 -112.711908 154 33362ft 475kts
18-Oct-18 09:57 45.393589 -112.636673 154 33360ft 475kts
18-Oct-18 09:58 45.272666 -112.562120 154 33356ft 475kts
18-Oct-18 09:59 45.144515 -112.516304 168 33351ft 477kts
18-Oct-18 10:00 45.014417 -112.478051 166 33349ft 477kts
18-Oct-18 10:01 44.884622 -112.440132 167 33345ft 477kts
18-Oct-18 10:02 44.754483 -112.401791 167 33351ft 477kts
18-Oct-18 10:03 44.624616 -112.364090 167 33346ft 477kts
18-Oct-18 10:04 44.494194 -112.326196 167 33359ft 477kts
18-Oct-18 10:05 44.364308 -112.288706 166 33382ft 477kts
18-Oct-18 10:06 44.234349 -112.251314 167 33356ft 478kts
18-Oct-18 10:07 44.103850 -112.214053 167 33393ft 478kts
18-Oct-18 10:08 43.970781 -112.200035 176 33393ft 480kts
18-Oct-18 10:09 43.837391 -112.190562 175 33399ft 479kts
18-Oct-18 10:10 43.704129 -112.180821 175 33393ft 480kts
18-Oct-18 10:11 43.570845 -112.171012 175 33394ft 480kts
18-Oct-18 10:12 43.437413 -112.161381 175 33355ft 481kts
18-Oct-18 10:13 43.303883 -112.151707 175 33334ft 482kts
18-Oct-18 10:14 43.169728 -112.142144 175 33353ft 482kts
18-Oct-18 10:15 43.035669 -112.132448 175 33381ft 483kts
18-Oct-18 10:16 42.901066 -112.122910 175 33391ft 485kts
18-Oct-18 10:17 42.765980 -112.113309 174 33394ft 486kts
18-Oct-18 10:18 42.630762 -112.103746 174 33395ft 486kts
18-Oct-18 10:19 42.495213 -112.094206 174 33393ft 487kts
18-Oct-18 10:20 42.360016 -112.084756 174 33386ft 488kts
18-Oct-18 10:21 42.247200 -112.076870 174 33399ft 488kts
18-Oct-18 10:22 42.088559 -112.065825 174 33398ft 489kts
18-Oct-18 10:23 41.952531 -112.056445 174 33401ft 489kts
18-Oct-18 10:24 41.839422 -112.048634 174 33398ft 489kts
18-Oct-18 10:25 41.680984 -112.037743 174 33404ft 488kts
18-Oct-18 10:26 41.567650 -112.030042 174 33416ft 488kts
18-Oct-18 10:27 41.409495 -112.019254 174 33408ft 487kts
18-Oct-18 10:28 41.296799 -112.011644 174 33397ft 487kts
18-Oct-18 10:29 41.161588 -112.002559 175 33394ft 486kts
18-Oct-18 10:30 41.036682 -111.994109 175 33404ft 482kts
18-Oct-18 10:31 40.903441 -111.985186 175 33399ft 476kts
18-Oct-18 10:32 40.771658 -111.976046 175 33319ft 473kts
18-Oct-18 10:33 40.639847 -111.966456 175 33316ft 475kts
18-Oct-18 10:34 40.507745 -111.956951 176 33410ft 476kts
18-Oct-18 10:35 40.375198 -111.947430 176 33412ft 475kts
18-Oct-18 10:36 40.244945 -111.956827 202 33360ft 473kts
18-Oct-18 10:37 40.125455 -112.029140 204 33325ft 476kts
18-Oct-18 10:38 40.003557 -112.099504 204 33390ft 478kts
18-Oct-18 10:39 39.882738 -112.171335 205 33413ft 477kts
18-Oct-18 10:40 39.762011 -112.242845 205 33401ft 475kts
18-Oct-18 10:41 39.641909 -112.313699 205 33323ft 475kts
18-Oct-18 10:42 39.521367 -112.384562 205 33354ft 474kts
18-Oct-18 10:43 39.401362 -112.454831 205 33356ft 474kts
18-Oct-18 10:44 39.281006 -112.525057 205 33414ft 473kts
18-Oct-18 10:45 39.161135 -112.594726 206 33412ft 471kts
18-Oct-18 10:46 39.041580 -112.663955 206 33413ft 470kts
18-Oct-18 10:47 38.922621 -112.732590 206 33392ft 468kts
18-Oct-18 10:48 38.804085 -112.800779 206 33363ft 467kts
18-Oct-18 10:49 38.685139 -112.868762 207 33332ft 467kts
18-Oct-18 10:50 38.566585 -112.936518 207 33319ft 466kts
18-Oct-18 10:51 38.448054 -113.003803 207 33317ft 466kts
18-Oct-18 10:52 38.329639 -113.070986 207 33315ft 465kts
18-Oct-18 10:53 38.211123 -113.137790 207 33322ft 468kts
18-Oct-18 10:54 38.091940 -113.204867 207 33405ft 469kts
18-Oct-18 10:55 37.972667 -113.271741 207 33402ft 468kts
18-Oct-18 10:56 37.854279 -113.337759 207 33402ft 461kts
18-Oct-18 10:57 37.737267 -113.402934 207 33341ft 456kts
18-Oct-18 10:58 37.621138 -113.467352 207 33346ft 462kts
18-Oct-18 10:59 37.503918 -113.534224 209 33359ft 460kts
18-Oct-18 11:00 37.388486 -113.603621 209 33331ft 460kts
18-Oct-18 11:01 37.273555 -113.672295 209 33368ft 457kts
18-Oct-18 11:02 37.159180 -113.740330 209 32582ft 449kts
18-Oct-18 11:03 37.043702 -113.809054 209 28536ft 467kts
18-Oct-18 11:04 36.929686 -113.876356 209 26149ft 441kts
18-Oct-18 11:05 36.821311 -113.940356 208 24348ft 426kts
18-Oct-18 11:06 36.714004 -114.003448 208 24331ft 425kts
18-Oct-18 11:07 36.606354 -114.066487 208 24276ft 425kts
18-Oct-18 11:08 36.531027 -114.170244 243 21008ft 416kts
18-Oct-18 11:09 36.470712 -114.289729 240 17925ft 400kts
18-Oct-18 11:10 36.412322 -114.403412 240 14803ft 371kts
18-Oct-18 11:11 36.361391 -114.502194 241 13575ft 314kts
18-Oct-18 11:12 36.314989 -114.592435 240 11989ft 307kts
18-Oct-18 11:13 36.247628 -114.653920 197 10951ft 313kts
18-Oct-18 11:14 36.166424 -114.687040 199 9048ft 298kts
18-Oct-18 11:15 36.090110 -114.720522 206 7988ft 278kts
18-Oct-18 11:16 36.063182 -114.789909 287 7823ft 223kts
18-Oct-18 11:17 36.073989 -114.866295 268 6382ft 227kts
18-Oct-18 11:18 36.073914 -114.940141 271 5377ft 208kts
18-Oct-18 11:19 36.073406 -114.992471 267 4824ft 170kts
18-Oct-18 11:20 36.073531 -115.045724 270 3743ft 145kts
18-Oct-18 11:21 36.073697 -115.094927 271 2706ft 143kts
18-Oct-18 11:22 36.073644 -115.141699 270 2195ft 74kts
18-Oct-18 11:23 36.075661 -115.151535 333 2195ft 15kts
18-Oct-18 11:24 36.079775 -115.153918 335 2195ft 18kts
18-Oct-18 11:25 36.083841 -115.155252 332 2195ft 10kts
18-Oct-18 11:26 36.085034 -115.154880 54 2195ft 0kts
18-Oct-18 11:27 36.085035 -115.154879 54 2195ft 0kts
18-Oct-18 11:28 36.085035 -115.154879 54 2195ft 0kts

Navigation Log

Ident Type
Flight plan parsing failed, navigation log unavailable